createdAt,value
2022-11-15T00:00:21.295Z,4.20
2022-11-15T00:02:42.194Z,4.20
2022-11-15T00:05:03.855Z,4.20
2022-11-15T00:07:53.364Z,4.20
2022-11-15T00:10:06.839Z,4.20
2022-11-15T00:12:29.653Z,4.10
2022-11-15T00:14:50.772Z,4.10
2022-11-15T00:17:11.640Z,4.10
2022-11-15T00:19:32.517Z,4.10
2022-11-15T00:21:53.250Z,4.10
2022-11-15T00:24:14.160Z,4.10
2022-11-15T00:26:35.035Z,4.10
2022-11-15T00:28:56.119Z,4.10
2022-11-15T00:31:19.102Z,4.10
2022-11-15T00:33:40.123Z,4.10
2022-11-15T00:36:12.653Z,4.00
2022-11-15T00:38:39.536Z,4.00
2022-11-15T00:41:05.020Z,4.00
2022-11-15T00:43:29.422Z,4.00
2022-11-15T00:45:50.954Z,4.00
2022-11-15T00:48:11.875Z,4.00
2022-11-15T00:50:32.776Z,4.00
2022-11-15T00:52:53.841Z,4.00
2022-11-15T00:55:17.463Z,4.10
2022-11-15T00:57:38.673Z,4.10
2022-11-15T01:00:00.699Z,4.10
2022-11-15T01:02:22.109Z,4.20
2022-11-15T01:04:43.111Z,4.20
2022-11-15T01:07:04.248Z,4.20
2022-11-15T01:09:25.634Z,4.30
2022-11-15T01:11:46.595Z,4.30
2022-11-15T01:14:07.986Z,4.40
2022-11-15T01:16:29.372Z,4.40
2022-11-15T01:18:50.405Z,4.40
2022-11-15T01:21:14.685Z,4.50
2022-11-15T01:23:35.756Z,4.50
2022-11-15T01:26:05.713Z,4.50
2022-11-15T01:28:26.621Z,4.60
2022-11-15T01:30:47.639Z,4.50
2022-11-15T01:33:08.902Z,4.50
2022-11-15T01:35:30.290Z,4.60
2022-11-15T01:37:51.545Z,4.60
2022-11-15T01:40:12.433Z,4.60
2022-11-15T01:42:33.402Z,4.60
2022-11-15T01:44:55.831Z,4.60
2022-11-15T01:47:24.843Z,4.60
2022-11-15T01:50:12.155Z,4.60
2022-11-15T01:52:35.748Z,4.60
2022-11-15T01:55:10.812Z,4.50
2022-11-15T01:57:32.264Z,4.50
2022-11-15T01:59:53.341Z,4.50
2022-11-15T02:02:14.794Z,4.50
2022-11-15T02:04:43.247Z,4.50
2022-11-15T02:07:06.617Z,4.60
2022-11-15T02:09:27.793Z,4.60
2022-11-15T02:11:50.243Z,4.60
2022-11-15T02:14:12.629Z,4.60
2022-11-15T02:17:06.367Z,4.60
2022-11-15T02:19:33.661Z,4.60
2022-11-15T02:22:28.839Z,4.50
2022-11-15T02:25:04.275Z,4.60
2022-11-15T02:28:00.144Z,4.60
2022-11-15T02:30:44.084Z,4.60
2022-11-15T02:33:43.585Z,4.60
2022-11-15T02:36:16.912Z,4.60
2022-11-15T02:39:11.400Z,4.60
2022-11-15T02:41:49.524Z,4.70
2022-11-15T02:44:44.812Z,4.70
2022-11-15T02:47:16.328Z,4.70
2022-11-15T02:49:38.827Z,4.70
2022-11-15T02:51:59.769Z,4.60
2022-11-15T02:54:27.866Z,4.70
2022-11-15T02:56:51.288Z,4.70
2022-11-15T02:59:34.375Z,4.80
2022-11-15T03:02:08.304Z,4.90
2022-11-15T03:05:09.536Z,4.90
2022-11-15T03:08:02.299Z,5.00
2022-11-15T03:10:41.693Z,4.90
2022-11-15T03:13:27.907Z,4.90
2022-11-15T03:16:30.605Z,4.80
2022-11-15T03:19:17.423Z,4.80
2022-11-15T03:21:41.010Z,4.80
2022-11-15T03:24:05.226Z,4.80
2022-11-15T03:26:27.286Z,4.80
2022-11-15T03:28:57.704Z,4.80
2022-11-15T03:31:39.519Z,4.80
2022-11-15T03:34:03.646Z,4.80
2022-11-15T03:36:27.079Z,4.80
2022-11-15T03:38:48.034Z,4.80
2022-11-15T03:41:32.272Z,4.80
2022-11-15T03:44:37.744Z,4.80
2022-11-15T03:47:33.842Z,4.80
2022-11-15T03:50:07.586Z,4.80
2022-11-15T03:52:34.072Z,4.90
2022-11-15T03:54:57.815Z,4.90
2022-11-15T03:57:18.985Z,4.90
2022-11-15T03:59:39.982Z,4.90
2022-11-15T04:02:01.012Z,4.90
2022-11-15T04:04:21.947Z,4.90
2022-11-15T04:06:43.515Z,4.90
2022-11-15T04:09:05.150Z,5.00
2022-11-15T04:11:27.006Z,5.00
2022-11-15T04:13:47.893Z,5.00
2022-11-15T04:16:08.813Z,5.00
2022-11-15T04:18:29.827Z,5.10
2022-11-15T04:21:09.384Z,5.10
2022-11-15T04:23:48.799Z,5.10
2022-11-15T04:26:14.051Z,5.20
2022-11-15T04:28:35.619Z,5.20
2022-11-15T04:30:56.808Z,5.20
2022-11-15T04:33:18.144Z,5.20
2022-11-15T04:35:39.549Z,5.20
2022-11-15T04:38:01.947Z,5.20
2022-11-15T04:40:23.524Z,5.20
2022-11-15T04:42:44.485Z,5.20
2022-11-15T04:45:05.616Z,5.20
2022-11-15T04:47:26.615Z,5.20
2022-11-15T04:49:47.546Z,5.10
2022-11-15T04:52:08.563Z,5.10
2022-11-15T04:54:29.516Z,5.10
2022-11-15T04:56:50.863Z,5.10
2022-11-15T04:59:12.047Z,5.10
2022-11-15T05:01:32.802Z,5.10
2022-11-15T05:04:12.465Z,5.00
2022-11-15T05:06:33.447Z,5.00
2022-11-15T05:08:54.581Z,5.00
2022-11-15T05:11:15.490Z,4.90
2022-11-15T05:13:36.363Z,4.90
2022-11-15T05:15:57.281Z,4.90
2022-11-15T05:18:23.121Z,4.90
2022-11-15T05:20:44.722Z,4.90
2022-11-15T05:23:05.931Z,4.90
2022-11-15T05:25:27.522Z,4.90
2022-11-15T05:27:48.834Z,4.90
2022-11-15T05:30:10.371Z,4.90
2022-11-15T05:32:31.419Z,4.90
2022-11-15T05:34:52.617Z,5.00
2022-11-15T05:37:15.100Z,4.90
2022-11-15T05:39:36.547Z,5.00
2022-11-15T05:46:43.648Z,5.00
2022-11-15T05:49:08.121Z,5.00
2022-11-15T05:51:30.838Z,5.10
2022-11-15T05:53:53.015Z,5.10
2022-11-15T05:56:15.048Z,5.10
2022-11-15T05:58:37.060Z,5.10
2022-11-15T06:00:58.414Z,5.10
2022-11-15T06:03:19.188Z,5.10
2022-11-15T06:05:41.200Z,5.10
2022-11-15T06:08:02.210Z,5.20
2022-11-15T06:10:23.644Z,5.20
2022-11-15T06:12:45.104Z,5.20
2022-11-15T06:15:07.027Z,5.30
2022-11-15T06:17:28.263Z,5.40
2022-11-15T06:19:49.210Z,5.40
2022-11-15T06:22:10.583Z,5.40
2022-11-15T06:24:31.518Z,5.40
2022-11-15T06:26:52.892Z,5.40
2022-11-15T06:29:14.106Z,5.40
2022-11-15T06:31:35.954Z,5.40
2022-11-15T06:33:57.016Z,5.40
2022-11-15T06:36:18.412Z,5.40
2022-11-15T06:39:35.277Z,5.40
2022-11-15T06:41:56.920Z,5.40
2022-11-15T06:44:17.876Z,5.40
2022-11-15T06:46:39.445Z,5.40
2022-11-15T06:49:02.948Z,5.40
2022-11-15T06:51:27.871Z,5.40
2022-11-15T06:55:10.421Z,5.40
2022-11-15T06:57:31.743Z,5.50
2022-11-15T06:59:53.099Z,5.60
2022-11-15T07:02:15.030Z,5.60
2022-11-15T07:04:37.300Z,5.60
2022-11-15T07:06:58.406Z,5.60
2022-11-15T07:09:19.765Z,5.70
2022-11-15T07:11:40.754Z,5.70
2022-11-15T07:14:51.971Z,5.80
2022-11-15T07:17:24.037Z,5.80
2022-11-15T07:19:45.053Z,5.90
2022-11-15T07:22:06.050Z,5.90
2022-11-15T07:24:27.561Z,6.00
2022-11-15T07:26:50.069Z,6.00
2022-11-15T07:29:10.981Z,6.00
2022-11-15T07:31:32.074Z,6.00
2022-11-15T07:33:53.546Z,6.00
2022-11-15T07:36:14.961Z,6.10
2022-11-15T07:38:42.464Z,6.10
2022-11-15T07:41:07.546Z,6.20
2022-11-15T07:43:29.598Z,6.20
2022-11-15T07:45:54.641Z,6.20
2022-11-15T07:48:18.958Z,6.30
2022-11-15T07:50:44.046Z,6.30
2022-11-15T07:53:05.143Z,6.40
2022-11-15T07:55:29.370Z,6.40
2022-11-15T07:57:50.858Z,6.50
2022-11-15T08:00:15.487Z,6.50
2022-11-15T08:02:37.515Z,6.60
2022-11-15T08:05:10.799Z,6.70
2022-11-15T08:07:34.587Z,6.80
2022-11-15T08:09:56.516Z,6.80
2022-11-15T08:12:17.779Z,6.90
2022-11-15T08:14:39.493Z,7.00
2022-11-15T08:17:00.615Z,7.00
2022-11-15T08:19:22.277Z,7.10
2022-11-15T08:21:43.392Z,7.10
2022-11-15T08:24:05.814Z,7.20
2022-11-15T08:26:30.172Z,7.30
2022-11-15T08:28:51.416Z,7.30
2022-11-15T08:31:18.895Z,7.40
2022-11-15T08:33:39.953Z,7.40
2022-11-15T08:36:02.023Z,7.50
2022-11-15T08:38:23.479Z,7.50
2022-11-15T08:47:35.622Z,7.80
2022-11-15T08:49:56.419Z,7.80
2022-11-15T08:52:17.491Z,7.90
2022-11-15T08:54:38.576Z,7.90
2022-11-15T08:56:59.822Z,8.00
2022-11-15T08:59:22.281Z,8.00
2022-11-15T09:01:53.862Z,8.10
2022-11-15T09:04:15.293Z,8.20
2022-11-15T09:06:38.674Z,8.20
2022-11-15T09:09:04.229Z,8.30
2022-11-15T09:11:25.518Z,8.40
2022-11-15T09:13:46.673Z,8.50
2022-11-15T09:16:07.818Z,8.50
2022-11-15T09:18:29.634Z,8.60
2022-11-15T09:20:51.318Z,8.60
2022-11-15T09:23:12.155Z,8.70
2022-11-15T09:25:33.607Z,8.80
2022-11-15T09:27:54.650Z,8.80
2022-11-15T09:30:34.617Z,8.90
2022-11-15T09:32:59.239Z,9.00
2022-11-15T09:35:20.325Z,9.10
2022-11-15T09:37:41.442Z,9.10
2022-11-15T09:40:03.392Z,9.20
2022-11-15T09:43:22.855Z,9.30
2022-11-15T09:46:02.487Z,9.30
2022-11-15T09:48:56.168Z,9.40
2022-11-15T09:51:36.215Z,9.40
2022-11-15T09:54:51.088Z,9.50
2022-11-15T09:56:45.359Z,9.60
2022-11-15T09:59:08.861Z,9.80
2022-11-15T10:01:58.917Z,9.80
2022-11-15T10:04:01.612Z,9.90
2022-11-15T10:06:11.281Z,10.00
2022-11-15T10:09:01.783Z,10.10
2022-11-15T10:13:36.200Z,10.20
2022-11-15T10:15:38.915Z,10.30
2022-11-15T10:18:05.495Z,10.30
2022-11-15T10:20:31.920Z,10.40
2022-11-15T10:23:03.571Z,10.50
2022-11-15T10:25:21.886Z,10.50
2022-11-15T10:27:25.248Z,10.50
2022-11-15T10:29:54.810Z,10.60
2022-11-15T10:31:57.398Z,10.70
2022-11-15T10:34:22.208Z,10.70
2022-11-15T10:36:26.641Z,10.80
2022-11-15T10:38:33.533Z,10.80
2022-11-15T10:42:20.757Z,10.90
2022-11-15T10:44:58.706Z,10.90
2022-11-15T10:48:01.988Z,11.00
2022-11-15T10:54:51.710Z,11.10
2022-11-15T10:57:41.884Z,11.20
2022-11-15T11:00:36.480Z,11.30
2022-11-15T11:03:06.182Z,11.30
2022-11-15T11:06:07.013Z,11.40
2022-11-15T11:08:48.534Z,11.40
2022-11-15T11:11:15.967Z,11.50
2022-11-15T11:13:37.373Z,11.50
2022-11-15T11:15:53.931Z,11.60
2022-11-15T11:18:35.031Z,11.60
2022-11-15T11:21:53.368Z,11.60
2022-11-15T11:24:47.741Z,11.70
2022-11-15T11:28:12.694Z,11.80
2022-11-15T11:31:06.727Z,11.90
2022-11-15T11:33:45.453Z,12.00
2022-11-15T11:40:38.860Z,12.10
2022-11-15T11:44:01.822Z,12.20
2022-11-15T11:47:13.706Z,12.20
2022-11-15T11:49:56.828Z,12.30
2022-11-15T11:57:06.487Z,12.40
2022-11-15T11:59:38.924Z,12.40
2022-11-15T12:01:45.408Z,12.40
2022-11-15T12:04:41.328Z,12.50
2022-11-15T12:06:56.774Z,12.60
2022-11-15T12:09:17.331Z,12.60
2022-11-15T12:12:03.555Z,12.60
2022-11-15T12:14:34.506Z,12.70
2022-11-15T12:16:44.383Z,12.70
2022-11-15T12:18:52.858Z,12.70
2022-11-15T12:21:07.507Z,12.80
2022-11-15T12:23:29.945Z,12.70
2022-11-15T12:25:54.737Z,12.80
2022-11-15T12:28:48.591Z,12.80
2022-11-15T12:31:35.460Z,12.80
2022-11-15T12:33:43.114Z,12.80
2022-11-15T12:36:04.857Z,12.80
2022-11-15T12:38:12.433Z,12.80
2022-11-15T12:41:19.463Z,12.80
2022-11-15T12:43:44.963Z,12.80
2022-11-15T12:45:48.737Z,12.80
2022-11-15T12:47:51.382Z,12.80
2022-11-15T12:49:55.789Z,12.80
2022-11-15T12:52:00.317Z,12.80
2022-11-15T12:54:22.783Z,12.80
2022-11-15T12:56:25.607Z,12.80
2022-11-15T12:58:51.273Z,12.80
2022-11-15T13:00:53.881Z,12.80
2022-11-15T13:03:24.583Z,12.80
2022-11-15T13:05:35.992Z,12.80
2022-11-15T13:07:41.242Z,12.80
2022-11-15T13:09:43.703Z,12.80
2022-11-15T13:11:50.353Z,12.80
2022-11-15T13:13:53.721Z,12.80
2022-11-15T13:16:00.450Z,12.80
2022-11-15T13:18:37.507Z,12.80
2022-11-15T13:20:40.149Z,12.80
2022-11-15T13:23:12.996Z,12.80
2022-11-15T13:25:24.917Z,12.80
2022-11-15T13:27:27.853Z,12.80
2022-11-15T13:29:30.805Z,12.80
2022-11-15T13:31:38.581Z,12.90
2022-11-15T13:33:41.595Z,12.80
2022-11-15T13:35:50.022Z,12.80
2022-11-15T13:37:55.312Z,12.90
2022-11-15T13:40:31.336Z,12.80
2022-11-15T13:42:33.907Z,12.80
2022-11-15T13:44:37.146Z,12.80
2022-11-15T13:46:39.827Z,12.70
2022-11-15T13:48:44.532Z,12.70
2022-11-15T13:50:47.613Z,12.60
2022-11-15T13:52:50.410Z,12.60
2022-11-15T13:55:20.059Z,12.50
2022-11-15T13:57:33.924Z,12.50
2022-11-15T13:59:46.199Z,12.40
2022-11-15T14:01:50.403Z,12.40
2022-11-15T14:04:04.355Z,12.30
2022-11-15T14:06:18.850Z,12.30
2022-11-15T14:08:21.360Z,12.20
2022-11-15T14:10:35.113Z,12.20
2022-11-15T14:12:37.749Z,12.10
2022-11-15T14:14:48.855Z,12.10
2022-11-15T14:17:01.453Z,12.00
2022-11-15T14:19:06.277Z,11.90
2022-11-15T14:21:10.805Z,12.00
2022-11-15T14:23:27.756Z,11.90
2022-11-15T14:25:36.590Z,11.80
2022-11-15T14:27:41.066Z,11.80
2022-11-15T14:29:43.772Z,11.80
2022-11-15T14:31:47.524Z,11.70
2022-11-15T14:33:50.948Z,11.60
2022-11-15T14:35:54.466Z,11.60
2022-11-15T14:38:02.763Z,11.50
2022-11-15T14:40:07.327Z,11.40
2022-11-15T14:42:20.304Z,11.40
2022-11-15T14:44:27.822Z,11.30
2022-11-15T14:46:38.889Z,11.20
2022-11-15T14:48:54.729Z,11.20
2022-11-15T14:50:58.216Z,11.20
2022-11-15T14:53:06.495Z,11.20
2022-11-15T14:55:37.340Z,11.20
2022-11-15T14:58:09.156Z,11.10
2022-11-15T15:00:13.060Z,11.10
2022-11-15T15:02:24.619Z,11.10
2022-11-15T15:04:32.751Z,11.00
2022-11-15T15:12:53.934Z,11.00
2022-11-15T15:14:58.441Z,11.00
2022-11-15T15:17:01.655Z,11.10
2022-11-15T15:19:09.779Z,11.00
2022-11-15T15:29:05.817Z,11.10
2022-11-15T15:38:55.660Z,11.10
2022-11-15T15:40:58.379Z,11.20
2022-11-15T15:43:01.261Z,11.20
2022-11-15T15:55:09.859Z,11.20
2022-11-15T15:57:14.697Z,11.10
2022-11-15T15:59:21.594Z,11.00
2022-11-15T16:01:24.179Z,10.80
2022-11-15T16:03:28.546Z,10.70
2022-11-15T16:05:31.909Z,10.60
2022-11-15T16:07:34.734Z,10.40
2022-11-15T16:09:56.754Z,10.30
2022-11-15T16:12:00.916Z,10.20
2022-11-15T16:14:14.609Z,10.10
2022-11-15T16:16:22.869Z,10.00
2022-11-15T16:18:25.412Z,9.90
2022-11-15T16:20:43.492Z,9.80
2022-11-15T16:22:46.088Z,9.80
2022-11-15T16:24:48.909Z,9.70
2022-11-15T16:26:52.507Z,9.60
2022-11-15T16:28:55.361Z,9.60
2022-11-15T16:31:19.141Z,9.50
2022-11-15T16:33:21.783Z,9.40
2022-11-15T16:35:25.675Z,9.30
2022-11-15T16:37:28.249Z,9.30
2022-11-15T16:39:31.058Z,9.30
2022-11-15T16:41:33.876Z,9.30
2022-11-15T16:43:36.470Z,9.40
2022-11-15T16:45:39.188Z,9.60
2022-11-15T16:47:41.926Z,9.80
2022-11-15T16:49:45.474Z,9.90
2022-11-15T16:51:51.357Z,10.10
2022-11-15T16:53:53.950Z,10.20
2022-11-15T16:55:56.909Z,10.20
2022-11-15T16:57:59.611Z,10.20
2022-11-15T17:00:02.347Z,10.10
2022-11-15T17:02:12.349Z,10.10
2022-11-15T17:04:16.469Z,10.00
2022-11-15T17:06:19.537Z,9.90
2022-11-15T17:08:24.413Z,9.90
2022-11-15T17:10:27.646Z,9.80
2022-11-15T17:12:31.145Z,9.80
2022-11-15T17:14:33.720Z,9.80
2022-11-15T17:16:38.325Z,9.80
2022-11-15T17:18:43.745Z,9.80
2022-11-15T17:20:46.363Z,9.90
2022-11-15T17:22:49.091Z,9.90
2022-11-15T17:24:51.963Z,10.00
2022-11-15T17:27:24.325Z,10.00
2022-11-15T17:29:26.969Z,10.00
2022-11-15T17:31:30.948Z,10.00
2022-11-15T17:33:33.967Z,9.90
2022-11-15T17:35:36.502Z,9.90
2022-11-15T17:37:39.248Z,9.90
2022-11-15T17:39:41.954Z,9.90
2022-11-15T17:41:44.566Z,9.90
2022-11-15T17:43:47.755Z,9.90
2022-11-15T17:45:50.492Z,9.90
2022-11-15T17:47:53.791Z,9.90
2022-11-15T17:49:56.516Z,9.90
2022-11-15T17:51:59.060Z,9.90
2022-11-15T17:54:01.688Z,9.90
2022-11-15T17:56:07.163Z,9.80
2022-11-15T17:58:09.779Z,9.80
2022-11-15T18:00:13.230Z,9.80
2022-11-15T18:02:15.831Z,9.70
2022-11-15T18:04:18.353Z,9.70
2022-11-15T18:06:39.975Z,9.60
2022-11-15T18:08:45.218Z,9.50
2022-11-15T18:10:47.742Z,9.50
2022-11-15T18:12:50.289Z,9.40
2022-11-15T18:14:52.840Z,9.40
2022-11-15T18:16:55.424Z,9.40
2022-11-15T18:18:59.149Z,9.30
2022-11-15T18:21:13.705Z,9.30
2022-11-15T18:23:16.950Z,9.40
2022-11-15T18:25:19.632Z,9.40
2022-11-15T18:27:22.206Z,9.40
2022-11-15T18:29:25.262Z,9.40
2022-11-15T18:31:30.546Z,9.40
2022-11-15T18:34:03.323Z,9.40
2022-11-15T18:36:09.207Z,9.30
2022-11-15T18:38:41.448Z,9.20
2022-11-15T18:40:44.127Z,9.10
2022-11-15T18:43:12.487Z,8.90
2022-11-15T18:45:15.924Z,8.90
2022-11-15T18:47:21.279Z,8.90
2022-11-15T18:49:23.889Z,9.00
2022-11-15T18:51:31.155Z,9.00
2022-11-15T18:53:35.203Z,9.00
2022-11-15T18:55:38.065Z,8.90
2022-11-15T18:57:41.215Z,8.80
2022-11-15T18:59:43.783Z,8.70
2022-11-15T19:01:48.350Z,8.60
2022-11-15T19:03:55.601Z,8.50
2022-11-15T19:06:12.692Z,8.40
2022-11-15T19:08:21.250Z,8.30
2022-11-15T19:10:23.870Z,8.20
2022-11-15T19:12:26.597Z,8.10
2022-11-15T19:14:29.495Z,8.00
2022-11-15T19:16:38.458Z,8.00
2022-11-15T19:18:42.386Z,8.00
2022-11-15T19:20:45.067Z,8.00
2022-11-15T19:22:47.674Z,8.10
2022-11-15T19:24:51.220Z,8.20
2022-11-15T19:26:54.912Z,8.30
2022-11-15T19:29:00.549Z,8.40
2022-11-15T19:31:15.713Z,8.50
2022-11-15T19:33:22.588Z,8.60
2022-11-15T19:35:27.828Z,8.70
2022-11-15T19:37:30.408Z,8.70
2022-11-15T19:39:36.971Z,8.70
2022-11-15T19:41:44.620Z,8.70
2022-11-15T19:43:48.140Z,8.70
2022-11-15T19:45:59.427Z,8.60
2022-11-15T19:48:05.758Z,8.50
2022-11-15T19:50:08.833Z,8.40
2022-11-15T19:52:13.398Z,8.40
2022-11-15T19:54:17.322Z,8.40
2022-11-15T19:56:21.441Z,8.30
2022-11-15T19:58:24.600Z,8.30
2022-11-15T20:00:27.280Z,8.30
2022-11-15T20:02:29.828Z,8.30
2022-11-15T20:04:32.515Z,8.40
2022-11-15T20:06:39.432Z,8.40
2022-11-15T20:08:42.647Z,8.40
2022-11-15T20:10:48.551Z,8.40
2022-11-15T20:12:51.119Z,8.40
2022-11-15T20:14:53.658Z,8.40
2022-11-15T20:16:58.302Z,8.40
2022-11-15T20:19:00.915Z,8.40
2022-11-15T20:21:06.326Z,8.40
2022-11-15T20:23:10.357Z,8.40
2022-11-15T20:25:12.912Z,8.30
2022-11-15T20:27:15.661Z,8.30
2022-11-15T20:29:18.342Z,8.30
2022-11-15T20:31:21.851Z,8.10
2022-11-15T20:33:25.471Z,8.10
2022-11-15T20:35:28.085Z,7.90
2022-11-15T20:37:30.774Z,7.80
2022-11-15T20:39:34.841Z,7.70
2022-11-15T20:41:37.562Z,7.60
2022-11-15T20:43:43.680Z,7.50
2022-11-15T20:45:48.857Z,7.50
2022-11-15T20:47:51.491Z,7.40
2022-11-15T20:49:55.588Z,7.30
2022-11-15T20:51:58.129Z,7.30
2022-11-15T20:54:01.533Z,7.30
2022-11-15T20:56:16.599Z,7.30
2022-11-15T20:58:19.823Z,7.40
2022-11-15T21:00:25.109Z,7.40
2022-11-15T21:02:29.125Z,7.60
2022-11-15T21:04:31.821Z,7.60
2022-11-15T21:06:34.486Z,7.60
2022-11-15T21:08:55.951Z,7.60
2022-11-15T21:11:18.261Z,7.60
2022-11-15T21:13:21.091Z,7.50
2022-11-15T21:15:41.572Z,7.50
2022-11-15T21:17:44.128Z,7.40
2022-11-15T21:19:47.422Z,7.30
2022-11-15T21:21:50.052Z,7.30
2022-11-15T21:23:52.629Z,7.30
2022-11-15T21:25:55.156Z,7.20
2022-11-15T21:27:57.784Z,7.20
2022-11-15T21:30:00.308Z,7.30
2022-11-15T21:32:34.456Z,7.30
2022-11-15T21:34:37.639Z,7.30
2022-11-15T21:36:40.237Z,7.30
2022-11-15T21:38:42.929Z,7.30
2022-11-15T21:40:45.554Z,7.30
2022-11-15T21:42:48.221Z,7.30
2022-11-15T21:44:50.778Z,7.40
2022-11-15T21:46:53.407Z,7.40
2022-11-15T21:49:05.595Z,7.40
2022-11-15T21:51:11.576Z,7.30
2022-11-15T21:53:14.159Z,7.30
2022-11-15T21:55:16.803Z,7.30
2022-11-15T21:57:20.650Z,7.20
2022-11-15T21:59:23.510Z,7.30
2022-11-15T22:01:46.763Z,7.30
2022-11-15T22:03:49.337Z,7.30
2022-11-15T22:05:51.919Z,7.30
2022-11-15T22:07:54.462Z,7.30
2022-11-15T22:09:58.870Z,7.20
2022-11-15T22:12:01.420Z,7.20
2022-11-15T22:14:11.843Z,7.20
2022-11-15T22:16:14.432Z,7.20
2022-11-15T22:18:32.068Z,7.20
2022-11-15T22:20:44.681Z,7.30
2022-11-15T22:22:47.809Z,7.20
2022-11-15T22:24:50.387Z,7.20
2022-11-15T22:26:53.047Z,7.20
2022-11-15T22:28:55.786Z,7.20
2022-11-15T22:30:58.984Z,7.20
2022-11-15T22:33:01.570Z,7.20
2022-11-15T22:35:04.312Z,7.20
2022-11-15T22:37:19.930Z,7.20
2022-11-15T22:39:23.450Z,7.20
2022-11-15T22:41:26.299Z,7.20
2022-11-15T22:43:28.931Z,7.10
2022-11-15T22:45:31.799Z,7.20
2022-11-15T22:47:34.365Z,7.20
2022-11-15T22:49:36.943Z,7.20
2022-11-15T22:51:40.590Z,7.20
2022-11-15T22:53:43.156Z,7.20
2022-11-15T22:55:55.012Z,7.20
2022-11-15T22:57:57.586Z,7.20
2022-11-15T23:00:00.181Z,7.20
2022-11-15T23:02:03.635Z,7.10
2022-11-15T23:04:10.146Z,7.10
2022-11-15T23:06:12.681Z,7.10
2022-11-15T23:08:15.613Z,7.20
2022-11-15T23:10:36.581Z,7.10
2022-11-15T23:12:58.045Z,7.20
2022-11-15T23:15:00.653Z,7.20
2022-11-15T23:19:26.171Z,7.40
2022-11-15T23:22:01.045Z,7.40
2022-11-15T23:24:05.142Z,7.40
2022-11-15T23:26:08.006Z,7.40
2022-11-15T23:28:10.675Z,7.40
2022-11-15T23:30:32.169Z,7.40
2022-11-15T23:32:53.338Z,7.40
2022-11-15T23:34:55.875Z,7.40
2022-11-15T23:36:59.449Z,7.40
2022-11-15T23:39:03.207Z,7.30
2022-11-15T23:41:06.391Z,7.30
2022-11-15T23:43:09.010Z,7.30
2022-11-15T23:45:11.655Z,7.30
2022-11-15T23:47:14.546Z,7.30
2022-11-15T23:49:17.352Z,7.20
2022-11-15T23:52:16.494Z,7.20
2022-11-15T23:54:19.062Z,7.10
2022-11-15T23:56:23.149Z,7.10
2022-11-15T23:58:25.746Z,7.10
